Time;durP1;ratioP1;P1;durP2;ratioP2;P2;SDS_P1;SDS_P2;PMS_P1;PMS_P2;Temp;Humidity;BMP_temperature;BMP_pressure;BME280_temperature;BME280_humidity;BME280_pressure;Samples;Min_cycle;Max_cycle;Signal;HPM_P1;HPM_P2
2022/05/04 00:01:03;;;;;;;8.73;7.67;;;12.90;99.90;;;;;;5056749;28;20175;-71
2022/05/04 00:03:29;;;;;;;9.10;8.30;;;12.90;99.90;;;;;;5056848;28;20171;-71
2022/05/04 00:05:54;;;;;;;8.40;7.63;;;13.00;99.90;;;;;;5056321;28;20186;-70
2022/05/04 00:08:20;;;;;;;8.33;7.43;;;13.00;99.90;;;;;;5056862;28;20690;-71
2022/05/04 00:10:45;;;;;;;8.23;7.07;;;13.20;99.90;;;;;;5038366;28;20724;-71
2022/05/04 00:13:12;;;;;;;10.23;7.60;;;13.20;99.90;;;;;;5056479;28;20189;-70
2022/05/04 00:15:37;;;;;;;10.57;9.17;;;13.10;99.90;;;;;;5056843;28;20168;-71
2022/05/04 00:18:03;;;;;;;9.17;8.37;;;13.10;99.90;;;;;;5056966;28;20461;-71
2022/05/04 00:20:29;;;;;;;8.77;7.97;;;13.10;99.90;;;;;;5056937;28;20178;-70
2022/05/04 00:22:55;;;;;;;8.30;7.60;;;13.10;99.90;;;;;;5056707;28;20405;-71
2022/05/04 00:25:20;;;;;;;9.23;8.43;;;13.10;99.90;;;;;;5056683;28;20163;-71
2022/05/04 00:27:46;;;;;;;8.33;7.63;;;13.10;99.90;;;;;;5056322;28;20208;-71
2022/05/04 00:30:12;;;;;;;10.47;9.57;;;13.00;99.90;;;;;;5038045;28;20173;-71
2022/05/04 00:32:37;;;;;;;8.33;7.70;;;13.00;99.90;;;;;;5056710;28;20200;-70
2022/05/04 00:35:03;;;;;;;8.10;7.30;;;12.90;99.90;;;;;;5038029;28;20179;-71
2022/05/04 00:37:29;;;;;;;9.30;8.47;;;12.80;99.90;;;;;;5055610;28;20184;-71
2022/05/04 00:39:54;;;;;;;10.20;8.60;;;12.80;99.90;;;;;;5038040;28;20447;-70
2022/05/04 00:42:21;;;;;;;8.13;7.43;;;12.90;99.90;;;;;;5060234;28;20169;-71
2022/05/04 00:44:52;;;;;;;8.10;7.40;;;13.00;99.90;;;;;;5060902;28;20190;-71
2022/05/04 00:47:18;;;;;;;7.90;7.30;;;13.10;99.90;;;;;;5060169;28;20441;-70
2022/05/04 00:49:49;;;;;;;8.90;8.20;;;13.10;99.90;;;;;;5059890;28;20443;-71
2022/05/04 00:52:16;;;;;;;8.20;7.40;;;13.00;99.90;;;;;;5060137;28;20467;-71
2022/05/04 00:54:48;;;;;;;9.30;8.60;;;13.00;99.90;;;;;;5060011;28;20405;-71
2022/05/04 00:57:15;;;;;;;9.03;8.30;;;13.00;99.90;;;;;;5041783;28;20792;-70
2022/05/04 00:59:41;;;;;;;9.67;8.87;;;13.00;99.90;;;;;;5059516;28;20800;-70
2022/05/04 01:02:07;;;;;;;10.07;9.27;;;12.90;99.90;;;;;;5059581;28;20773;-70
2022/05/04 01:04:33;;;;;;;11.60;10.50;;;12.80;99.90;;;;;;5059998;28;20487;-71
2022/05/04 01:07:00;;;;;;;9.13;8.37;;;12.60;99.90;;;;;;5042293;28;20202;-70
2022/05/04 01:09:25;;;;;;;9.10;8.20;;;12.60;99.90;;;;;;5063600;28;20182;-71
2022/05/04 01:11:51;;;;;;;11.77;10.20;;;12.60;99.90;;;;;;5067491;28;20456;-70
2022/05/04 01:14:18;;;;;;;10.43;9.57;;;12.60;99.90;;;;;;5064241;28;20203;-70
2022/05/04 01:16:51;;;;;;;11.60;10.43;;;12.50;99.90;;;;;;5061601;28;20472;-71
2022/05/04 01:19:17;;;;;;;12.27;11.10;;;12.50;99.90;;;;;;5060356;28;20523;-70
2022/05/04 01:21:43;;;;;;;11.40;10.00;;;12.40;99.90;;;;;;5059727;28;20409;-71
2022/05/04 01:24:10;;;;;;;9.93;8.90;;;12.40;99.90;;;;;;5059769;28;20210;-71
2022/05/04 01:26:36;;;;;;;10.50;9.63;;;12.40;99.90;;;;;;5058737;28;20501;-70
2022/05/04 01:29:01;;;;;;;12.53;11.40;;;12.40;99.90;;;;;;5059279;28;20401;-71
2022/05/04 01:31:27;;;;;;;9.77;8.80;;;12.50;99.90;;;;;;5058298;28;20454;-71
2022/05/04 01:33:52;;;;;;;8.10;7.40;;;12.60;99.90;;;;;;5058359;28;20540;-70
2022/05/04 01:36:18;;;;;;;11.27;8.77;;;12.60;99.90;;;;;;5040332;28;20191;-71
2022/05/04 01:38:44;;;;;;;10.27;9.37;;;12.70;99.90;;;;;;5059210;28;20167;-70
2022/05/04 01:42:02;;;;;;;9.70;8.80;;;12.80;99.90;;;;;;5060499;28;20253;-70
2022/05/04 01:43:55;;;;;;;9.87;8.97;;;12.90;99.90;;;;;;5060218;28;20183;-71
2022/05/04 01:46:21;;;;;;;9.77;8.77;;;12.90;99.90;;;;;;5055467;28;20455;-71
2022/05/04 01:48:48;;;;;;;10.27;9.33;;;12.90;99.90;;;;;;5039610;28;20185;-70
2022/05/04 01:51:13;;;;;;;10.43;9.37;;;12.90;99.90;;;;;;5040219;28;20455;-71
2022/05/04 01:53:40;;;;;;;9.77;8.87;;;12.90;99.90;;;;;;5059776;28;20500;-71
2022/05/04 01:56:07;;;;;;;10.30;9.40;;;12.90;99.90;;;;;;5063302;28;20251;-71
2022/05/04 01:58:33;;;;;;;9.67;8.77;;;12.80;99.90;;;;;;5060489;28;20409;-71
2022/05/04 02:01:01;;;;;;;8.87;8.17;;;12.70;99.90;;;;;;5059878;28;20511;-71
2022/05/04 02:03:26;;;;;;;9.77;8.90;;;12.70;99.90;;;;;;5063190;28;20234;-72
2022/05/04 02:05:52;;;;;;;9.30;8.60;;;12.70;99.90;;;;;;5063064;28;20464;-70
2022/05/04 02:08:17;;;;;;;9.83;8.87;;;12.70;99.90;;;;;;5059935;28;20189;-70
2022/05/04 02:10:44;;;;;;;9.70;8.70;;;12.80;99.90;;;;;;5058359;28;20186;-70
2022/05/04 02:13:10;;;;;;;11.10;10.10;;;12.80;99.90;;;;;;5058793;28;20163;-71
2022/05/04 02:15:35;;;;;;;9.20;8.50;;;12.80;99.90;;;;;;5057039;28;20405;-70
2022/05/04 02:18:02;;;;;;;9.40;8.50;;;12.80;99.90;;;;;;5056411;28;20175;-70
2022/05/04 02:20:27;;;;;;;11.07;10.03;;;12.90;99.90;;;;;;5055591;28;20166;-70
2022/05/04 02:22:53;;;;;;;14.73;10.00;;;12.90;99.90;;;;;;5058732;28;20417;-70
2022/05/04 02:25:18;;;;;;;10.07;9.20;;;12.90;99.90;;;;;;5039440;28;20170;-70
2022/05/04 02:27:44;;;;;;;9.87;9.07;;;12.80;99.90;;;;;;5062185;22;20225;-72
2022/05/04 02:30:10;;;;;;;12.17;10.83;;;12.80;99.90;;;;;;5053653;28;20700;-71
2022/05/04 02:32:35;;;;;;;8.80;8.00;;;12.90;99.90;;;;;;5054005;28;20199;-72
2022/05/04 02:37:54;;;;;;;9.57;8.67;;;13.00;99.90;;;;;;5054343;28;20223;-72
2022/05/04 02:40:21;;;;;;;8.57;7.97;;;13.00;99.90;;;;;;5059258;28;20739;-72
2022/05/04 02:42:46;;;;;;;9.87;8.80;;;13.00;99.90;;;;;;5073929;28;20427;-71
2022/05/04 02:45:12;;;;;;;9.33;8.63;;;13.10;99.90;;;;;;5074031;28;20933;-71
2022/05/04 02:47:39;;;;;;;10.23;9.33;;;13.10;99.90;;;;;;5073897;28;20190;-72
2022/05/04 02:50:06;;;;;;;8.83;8.13;;;13.10;99.90;;;;;;5073642;28;20716;-72
2022/05/04 02:52:31;;;;;;;9.10;8.30;;;13.20;99.90;;;;;;5073740;28;20490;-72
2022/05/04 02:54:57;;;;;;;10.27;9.43;;;13.30;99.90;;;;;;5073757;28;20437;-72
2022/05/04 02:57:22;;;;;;;9.90;9.10;;;13.30;99.90;;;;;;5064235;28;20605;-71
2022/05/04 02:59:48;;;;;;;8.27;7.50;;;13.30;99.90;;;;;;5054371;28;20176;-72
2022/05/04 03:02:29;;;;;;;9.70;8.80;;;13.40;99.90;;;;;;5053547;28;20634;-72
2022/05/04 03:05:00;;;;;;;8.97;8.27;;;13.30;99.90;;;;;;5035704;28;20227;-71
2022/05/04 03:07:26;;;;;;;9.80;9.07;;;13.30;99.90;;;;;;5053561;28;20438;-71
2022/05/04 03:09:56;;;;;;;9.33;8.53;;;13.20;99.90;;;;;;5053575;28;20469;-71
2022/05/04 03:12:22;;;;;;;9.70;8.20;;;13.20;99.90;;;;;;5053184;28;20437;-72
2022/05/04 03:14:48;;;;;;;10.80;9.80;;;13.20;99.90;;;;;;5053372;28;20543;-72
2022/05/04 03:17:14;;;;;;;8.80;8.10;;;13.30;99.90;;;;;;5053591;28;20422;-71
2022/05/04 03:19:40;;;;;;;10.30;9.33;;;13.40;99.90;;;;;;5053358;28;20409;-72
2022/05/04 03:22:06;;;;;;;9.40;8.70;;;13.30;99.90;;;;;;5051918;28;20265;-72
2022/05/04 03:24:32;;;;;;;10.30;9.50;;;13.30;99.90;;;;;;5053583;28;20545;-71
2022/05/04 03:26:58;;;;;;;10.03;9.13;;;13.30;99.90;;;;;;5052780;28;20450;-72
2022/05/04 03:29:23;;;;;;;9.83;9.03;;;13.40;99.90;;;;;;5053653;28;20573;-71
2022/05/04 03:31:49;;;;;;;9.33;8.40;;;13.40;99.90;;;;;;5053530;28;20496;-71
2022/05/04 03:34:15;;;;;;;8.63;8.03;;;13.50;99.90;;;;;;5053596;28;20535;-72
2022/05/04 03:36:41;;;;;;;8.93;8.23;;;13.50;99.90;;;;;;5053386;28;20499;-72
2022/05/04 03:39:07;;;;;;;10.63;9.73;;;13.50;99.90;;;;;;5053674;28;20520;-73
2022/05/04 03:41:34;;;;;;;9.40;8.60;;;13.50;99.90;;;;;;5067528;28;20204;-74
2022/05/04 03:44:00;;;;;;;9.90;9.10;;;13.60;99.90;;;;;;5073347;28;20414;-72
2022/05/04 03:46:28;;;;;;;9.40;8.60;;;13.60;99.90;;;;;;5073590;28;20431;-73
2022/05/04 03:48:56;;;;;;;9.50;8.80;;;13.60;99.90;;;;;;5055388;28;20934;-73
2022/05/04 03:51:22;;;;;;;10.57;9.57;;;13.60;99.90;;;;;;5073114;28;20485;-73
2022/05/04 03:53:52;;;;;;;10.47;9.67;;;13.50;99.90;;;;;;5073447;28;20434;-72
2022/05/04 03:56:18;;;;;;;9.00;8.20;;;13.50;99.90;;;;;;5072282;28;20412;-74
2022/05/04 03:58:45;;;;;;;9.17;8.47;;;13.60;99.90;;;;;;5034798;28;20926;-72
2022/05/04 04:01:11;;;;;;;9.40;8.70;;;13.60;99.90;;;;;;5035232;28;20446;-72
2022/05/04 04:03:38;;;;;;;9.20;8.40;;;13.70;99.90;;;;;;5034980;28;20418;-71
2022/05/04 04:06:03;;;;;;;9.77;8.87;;;13.60;99.90;;;;;;5052861;28;20484;-72
2022/05/04 04:08:30;;;;;;;9.77;8.30;;;13.60;99.90;;;;;;5053040;28;21015;-72
2022/05/04 04:10:55;;;;;;;11.20;10.30;;;13.60;99.90;;;;;;5052606;28;20202;-72
2022/05/04 04:13:21;;;;;;;9.37;8.60;;;13.50;99.90;;;;;;5052755;28;20532;-72
2022/05/04 04:15:51;;;;;;;9.77;8.90;;;13.50;99.90;;;;;;5054779;28;20439;-72
2022/05/04 04:18:18;;;;;;;9.70;8.97;;;13.50;99.90;;;;;;5056826;28;20184;-72
2022/05/04 04:23:27;;;;;;;10.07;9.17;;;13.70;99.90;;;;;;5057005;28;20391;-72
2022/05/04 04:25:53;;;;;;;8.33;7.63;;;13.70;99.90;;;;;;5053806;28;20438;-72
2022/05/04 04:28:20;;;;;;;9.93;9.13;;;13.70;99.90;;;;;;5037276;28;20717;-72
2022/05/04 04:30:46;;;;;;;9.20;8.50;;;13.60;99.90;;;;;;5056446;28;20253;-72
2022/05/04 04:33:12;;;;;;;9.37;8.60;;;13.60;99.90;;;;;;5056723;28;20402;-72
2022/05/04 04:35:38;;;;;;;8.97;8.27;;;13.70;99.90;;;;;;5056401;28;20270;-72
2022/05/04 04:38:03;;;;;;;9.70;8.80;;;13.80;99.90;;;;;;5055056;28;20190;-72
2022/05/04 04:40:29;;;;;;;7.90;7.30;;;13.80;99.90;;;;;;5060192;28;20487;-72
2022/05/04 04:42:55;;;;;;;10.30;9.30;;;13.90;99.90;;;;;;5051532;28;20186;-72
2022/05/04 04:45:21;;;;;;;9.10;8.30;;;14.00;99.90;;;;;;5047263;28;20177;-72
2022/05/04 04:47:47;;;;;;;8.90;8.20;;;14.00;99.90;;;;;;5051889;28;20191;-73
2022/05/04 04:50:14;;;;;;;9.80;9.00;;;14.10;99.90;;;;;;5056071;28;20398;-73
2022/05/04 04:52:40;;;;;;;9.30;8.40;;;14.10;99.90;;;;;;5056046;28;20450;-73
2022/05/04 04:55:07;;;;;;;10.73;9.83;;;14.10;99.90;;;;;;5055945;28;20487;-73
2022/05/04 04:57:36;;;;;;;9.60;8.60;;;14.20;99.90;;;;;;5056879;28;20435;-72
2022/05/04 05:00:02;;;;;;;9.53;8.60;;;14.30;99.90;;;;;;5056002;28;20422;-72
2022/05/04 05:02:28;;;;;;;10.47;9.57;;;14.40;99.90;;;;;;5056352;28;20776;-72
2022/05/04 05:04:54;;;;;;;11.33;10.33;;;14.40;99.90;;;;;;5056295;28;20414;-72
2022/05/04 05:07:20;;;;;;;12.20;11.17;;;14.40;99.90;;;;;;5037893;28;20190;-72
2022/05/04 05:09:46;;;;;;;11.00;9.40;;;14.40;99.90;;;;;;5055515;28;20418;-73
2022/05/04 05:12:12;;;;;;;9.13;8.43;;;14.40;99.90;;;;;;5037441;28;20208;-72
2022/05/04 05:17:21;;;;;;;10.07;9.23;;;14.50;99.90;;;;;;5056458;28;20190;-72
2022/05/04 05:19:48;;;;;;;10.30;9.33;;;14.50;99.90;;;;;;5055744;28;20959;-72
2022/05/04 05:22:13;;;;;;;10.37;9.47;;;14.50;99.90;;;;;;5055609;28;20159;-73
2022/05/04 05:24:39;;;;;;;11.03;10.10;;;14.60;99.90;;;;;;5055243;28;20408;-73
2022/05/04 05:27:07;;;;;;;10.70;9.60;;;14.60;99.90;;;;;;5054315;28;20283;-73
2022/05/04 05:29:32;;;;;;;12.20;11.10;;;14.50;99.90;;;;;;5055344;28;20174;-73
2022/05/04 05:31:58;;;;;;;9.13;8.33;;;14.60;99.90;;;;;;5055444;28;20488;-73
2022/05/04 05:34:26;;;;;;;9.60;8.70;;;14.70;99.90;;;;;;5070335;28;20222;-73
2022/05/04 05:36:52;;;;;;;10.07;9.27;;;14.80;99.90;;;;;;5075187;28;20222;-73
2022/05/04 05:39:17;;;;;;;10.07;9.20;;;14.90;99.90;;;;;;5075685;28;20399;-73
2022/05/04 05:41:43;;;;;;;10.10;9.30;;;15.00;99.90;;;;;;5057034;28;20217;-73
2022/05/04 05:44:09;;;;;;;11.00;9.90;;;15.10;99.90;;;;;;5075067;28;20682;-73
2022/05/04 05:46:35;;;;;;;10.87;9.97;;;15.20;99.90;;;;;;5075408;28;20194;-73
2022/05/04 05:49:00;;;;;;;10.33;9.33;;;15.20;99.90;;;;;;5075702;28;20402;-73
2022/05/04 05:51:26;;;;;;;9.83;8.90;;;15.30;99.90;;;;;;5060824;28;20219;-71
2022/05/04 05:53:51;;;;;;;8.90;8.00;;;15.50;99.90;;;;;;5055002;28;20175;-71
2022/05/04 05:56:17;;;;;;;9.93;9.03;;;15.60;99.90;;;;;;5054575;28;20163;-71
2022/05/04 05:58:42;;;;;;;9.60;8.80;;;15.70;99.90;;;;;;5054485;28;20169;-71
2022/05/04 06:01:08;;;;;;;8.77;8.00;;;15.80;99.90;;;;;;5055285;28;20564;-71
2022/05/04 06:03:33;;;;;;;8.83;7.97;;;16.00;99.90;;;;;;5036472;28;20200;-71
2022/05/04 06:05:59;;;;;;;12.00;8.10;;;16.10;99.90;;;;;;5053943;28;20174;-73
2022/05/04 06:08:25;;;;;;;8.73;7.83;;;16.10;99.90;;;;;;5054452;28;20646;-72
2022/05/04 06:10:50;;;;;;;12.73;9.30;;;16.00;99.90;;;;;;5054779;28;20621;-72
2022/05/04 06:13:16;;;;;;;8.50;7.80;;;16.10;99.90;;;;;;5054350;28;20173;-72
2022/05/04 06:15:41;;;;;;;13.73;7.97;;;16.20;99.90;;;;;;5054465;28;20244;-72
2022/05/04 06:18:07;;;;;;;13.37;7.87;;;16.30;99.90;;;;;;5052936;28;20265;-73
2022/05/04 06:20:33;;;;;;;10.27;9.20;;;16.20;99.90;;;;;;5054610;28;20165;-72
2022/05/04 06:22:58;;;;;;;10.63;8.30;;;16.20;99.90;;;;;;5054391;28;20401;-72
2022/05/04 06:25:24;;;;;;;8.90;8.20;;;16.30;99.90;;;;;;5054189;28;20265;-72
2022/05/04 06:27:50;;;;;;;8.63;7.87;;;16.40;99.90;;;;;;5053553;28;20263;-72
2022/05/04 06:35:44;;;;;;;8.90;8.20;;;16.90;99.90;;;;;;5074665;28;20530;-73
2022/05/04 06:38:10;;;;;;;8.20;7.50;;;16.90;99.90;;;;;;5072927;28;20499;-73
2022/05/04 06:40:37;;;;;;;8.13;7.47;;;16.90;99.90;;;;;;5073868;28;20689;-74
2022/05/04 06:43:03;;;;;;;8.43;7.33;;;16.90;99.90;;;;;;5073829;28;20392;-73
2022/05/04 06:45:29;;;;;;;7.27;6.67;;;17.10;99.90;;;;;;5073778;28;20758;-74
2022/05/04 06:47:55;;;;;;;10.07;9.07;;;17.20;99.90;;;;;;5056171;28;20571;-75
2022/05/04 06:50:20;;;;;;;9.20;8.50;;;16.90;99.90;;;;;;5073873;28;20166;-73
2022/05/04 06:52:46;;;;;;;10.93;10.00;;;16.70;99.90;;;;;;5073824;28;20673;-74
2022/05/04 06:55:12;;;;;;;11.30;8.60;;;16.50;99.90;;;;;;5073457;28;20168;-72
2022/05/04 06:57:37;;;;;;;9.60;8.67;;;16.70;99.90;;;;;;5061420;28;20195;-74
2022/05/04 07:00:04;;;;;;;9.20;8.30;;;16.70;99.90;;;;;;5053925;28;20170;-72
2022/05/04 07:02:32;;;;;;;9.17;8.37;;;16.50;99.90;;;;;;5053383;28;20214;-72
2022/05/04 07:04:57;;;;;;;9.80;8.63;;;16.50;99.90;;;;;;5053481;28;20414;-71
2022/05/04 07:07:23;;;;;;;8.23;7.53;;;16.50;99.90;;;;;;5053229;28;20429;-72
2022/05/04 07:09:48;;;;;;;10.70;8.03;;;16.50;99.90;;;;;;5053249;28;20181;-74
2022/05/04 07:12:14;;;;;;;8.80;8.00;;;16.60;99.90;;;;;;5052773;28;20190;-73
2022/05/04 07:14:39;;;;;;;9.20;8.27;;;16.30;99.90;;;;;;5053370;28;20220;-72
2022/05/04 07:17:05;;;;;;;7.90;7.13;;;16.50;99.90;;;;;;5053404;28;20268;-74
2022/05/04 07:19:31;;;;;;;10.87;7.20;;;16.30;99.90;;;;;;5053387;28;20646;-74
2022/05/04 07:21:56;;;;;;;7.20;6.60;;;16.10;99.90;;;;;;5053009;28;20257;-74
2022/05/04 07:24:22;;;;;;;8.17;7.50;;;16.00;99.90;;;;;;5053298;28;20219;-75
2022/05/04 07:26:47;;;;;;;8.07;7.20;;;15.90;99.90;;;;;;5051316;28;20760;-75
2022/05/04 07:29:13;;;;;;;6.97;6.47;;;16.10;99.90;;;;;;5034961;28;20166;-74
2022/05/04 07:31:38;;;;;;;7.10;6.50;;;16.30;99.90;;;;;;5054882;28;20235;-74
2022/05/04 07:34:04;;;;;;;7.77;7.07;;;16.10;99.90;;;;;;5054023;28;20171;-74
2022/05/04 07:36:30;;;;;;;7.27;6.60;;;16.30;99.90;;;;;;5052778;28;20557;-73
2022/05/04 07:38:56;;;;;;;7.87;7.17;;;16.50;99.90;;;;;;5071297;28;20201;-73
2022/05/04 07:44:06;;;;;;;7.17;6.33;;;16.60;99.90;;;;;;5072900;28;20486;-72
2022/05/04 07:46:33;;;;;;;7.60;6.90;;;16.60;99.90;;;;;;5073105;28;20456;-70
2022/05/04 07:48:59;;;;;;;7.23;6.63;;;16.60;99.90;;;;;;5048049;28;20405;-72
2022/05/04 07:51:24;;;;;;;6.63;6.10;;;16.60;99.90;;;;;;5053124;28;20502;-72
2022/05/04 07:53:50;;;;;;;7.53;6.93;;;16.90;99.90;;;;;;5035220;28;20175;-74
2022/05/04 07:56:16;;;;;;;11.90;6.13;;;17.20;99.90;;;;;;5034738;28;20275;-74
2022/05/04 07:58:41;;;;;;;6.80;6.20;;;17.30;99.90;;;;;;5053013;28;20162;-73
2022/05/04 08:04:34;;;;;;;6.17;5.67;;;17.50;99.90;;;;;;5052978;28;20208;-73
2022/05/04 08:06:40;;;;;;;6.97;6.30;;;17.40;99.90;;;;;;5044466;28;20461;-70
2022/05/04 08:09:05;;;;;;;7.40;6.70;;;17.40;99.90;;;;;;5053181;28;20444;-74
2022/05/04 08:11:31;;;;;;;7.20;6.60;;;17.50;99.90;;;;;;5052407;28;20194;-71
2022/05/04 08:13:56;;;;;;;6.07;5.47;;;17.60;99.90;;;;;;5052334;28;20166;-72
2022/05/04 08:16:22;;;;;;;6.57;5.97;;;17.50;99.90;;;;;;5052726;28;20666;-73
2022/05/04 08:18:48;;;;;;;6.53;5.90;;;17.70;99.90;;;;;;5052774;28;20163;-71
2022/05/04 08:21:14;;;;;;;5.80;5.20;;;17.80;99.90;;;;;;5052771;28;20224;-70
2022/05/04 08:23:40;;;;;;;7.50;6.60;;;17.80;99.90;;;;;;5052708;28;20171;-72
2022/05/04 08:26:06;;;;;;;7.57;6.87;;;17.70;99.90;;;;;;5058159;28;20420;-71
2022/05/04 08:28:32;;;;;;;7.27;6.67;;;17.30;99.90;;;;;;5094569;22;20487;-69
2022/05/04 08:30:57;;;;;;;6.00;5.50;;;17.10;99.90;;;;;;5075553;28;20185;-70
2022/05/04 08:33:23;;;;;;;6.43;5.83;;;17.20;99.90;;;;;;5074042;28;20166;-70
2022/05/04 08:35:49;;;;;;;6.53;5.93;;;17.20;99.90;;;;;;5073442;28;20158;-73
2022/05/04 08:38:15;;;;;;;5.77;5.33;;;17.10;99.90;;;;;;5054862;28;20232;-71
2022/05/04 08:40:41;;;;;;;6.27;5.67;;;17.10;99.90;;;;;;5072907;28;20400;-70
2022/05/04 08:43:08;;;;;;;5.37;4.97;;;17.10;99.90;;;;;;5073509;28;20841;-70
2022/05/04 08:45:40;;;;;;;6.87;5.00;;;17.10;99.90;;;;;;5072715;28;20266;-71
2022/05/04 08:48:09;;;;;;;5.47;5.00;;;17.30;99.90;;;;;;5073973;28;20503;-70
2022/05/04 08:50:37;;;;;;;7.40;6.33;;;17.40;99.90;;;;;;5072868;28;20404;-69
2022/05/04 08:53:04;;;;;;;6.53;5.97;;;17.20;99.90;;;;;;5073060;28;20396;-67
2022/05/04 08:55:30;;;;;;;7.57;6.97;;;17.20;99.90;;;;;;5072901;28;20412;-66
2022/05/04 08:57:56;;;;;;;7.90;7.30;;;17.00;99.90;;;;;;5072400;28;21023;-67
2022/05/04 09:00:22;;;;;;;6.97;6.37;;;16.90;99.90;;;;;;5072405;28;20657;-68
2022/05/04 09:02:48;;;;;;;9.93;7.47;;;16.80;99.90;;;;;;5075966;28;20311;-70
2022/05/04 09:05:19;;;;;;;7.53;6.83;;;16.70;99.90;;;;;;5076537;28;20878;-69
2022/05/04 09:07:49;;;;;;;7.87;7.00;;;16.40;99.90;;;;;;5076156;28;20193;-68
2022/05/04 09:10:27;;;;;;;8.27;7.40;;;16.40;99.90;;;;;;5075930;28;20779;-67
2022/05/04 09:12:55;;;;;;;7.90;7.20;;;16.40;99.90;;;;;;5075731;28;20439;-69
2022/05/04 09:15:22;;;;;;;7.30;6.60;;;16.20;99.90;;;;;;5076053;28;20400;-71
2022/05/04 09:18:01;;;;;;;10.37;8.90;;;16.00;99.90;;;;;;5076015;28;20504;-68
2022/05/04 09:20:56;;;;;;;9.10;7.80;;;15.90;99.90;;;;;;5075955;28;20380;-68
2022/05/04 09:23:28;;;;;;;7.80;7.10;;;16.20;99.90;;;;;;5075879;28;20753;-67
2022/05/04 09:25:56;;;;;;;8.97;8.03;;;16.50;99.90;;;;;;5075511;28;20826;-68
2022/05/04 09:28:26;;;;;;;7.40;6.70;;;16.80;99.90;;;;;;5074975;28;20462;-66
2022/05/04 09:30:57;;;;;;;7.23;6.00;;;17.10;99.90;;;;;;5075697;28;20744;-66
2022/05/04 09:33:27;;;;;;;7.37;6.70;;;17.40;99.90;;;;;;5076087;28;20381;-67
2022/05/04 09:35:54;;;;;;;6.50;5.90;;;17.40;99.90;;;;;;5075599;28;20945;-68
2022/05/04 09:46:46;;;;;;;6.90;6.30;;;17.60;99.90;;;;;;5076810;28;20426;-70
2022/05/04 09:49:13;;;;;;;6.80;5.63;;;18.10;99.90;;;;;;5076194;28;20412;-67
2022/05/04 09:51:44;;;;;;;7.30;6.70;;;18.40;99.90;;;;;;5058599;28;20969;-69
2022/05/04 09:54:37;;;;;;;7.73;6.97;;;18.40;99.90;;;;;;5056994;28;20779;-68
2022/05/04 09:57:04;;;;;;;6.67;6.07;;;18.70;99.90;;;;;;5073454;28;20567;-68
2022/05/04 09:59:31;;;;;;;7.20;6.50;;;18.40;99.90;;;;;;5074999;28;20419;-68
2022/05/04 10:01:59;;;;;;;6.97;6.37;;;18.80;99.90;;;;;;5075584;28;20411;-69
2022/05/04 10:04:26;;;;;;;9.00;8.30;;;19.40;99.90;;;;;;5075450;28;20416;-70
2022/05/04 10:06:53;;;;;;;10.40;7.10;;;19.20;99.90;;;;;;5074691;28;20411;-70
2022/05/04 10:09:20;;;;;;;10.37;8.50;;;19.40;99.90;;;;;;5075012;28;20408;-69
2022/05/04 10:11:46;;;;;;;9.20;8.40;;;19.50;99.90;;;;;;5074218;28;20951;-70
2022/05/04 10:14:15;;;;;;;9.97;8.33;;;19.80;99.90;;;;;;5074586;28;20399;-69
2022/05/04 10:16:43;;;;;;;9.67;8.77;;;19.50;99.90;;;;;;5074564;28;20400;-69
2022/05/04 10:19:16;;;;;;;9.30;8.50;;;19.40;99.90;;;;;;5074627;28;20815;-68
2022/05/04 10:21:44;;;;;;;10.87;9.40;;;20.10;99.90;;;;;;5074750;28;20384;-70
2022/05/04 10:24:10;;;;;;;10.67;9.77;;;19.50;99.90;;;;;;5073877;28;20424;-71
2022/05/04 10:26:38;;;;;;;10.93;10.03;;;19.40;99.90;;;;;;5059784;28;20420;-71
2022/05/04 10:32:28;;;;;;;10.80;9.73;;;19.50;99.90;;;;;;5054876;28;20508;-71
2022/05/04 10:35:13;;;;;;;12.07;10.97;;;19.00;99.90;;;;;;5054507;28;20536;-70
2022/05/04 10:37:54;;;;;;;12.10;11.00;;;19.50;99.90;;;;;;5054431;28;20420;-70
2022/05/04 10:40:44;;;;;;;11.27;10.17;;;20.00;99.90;;;;;;5054117;28;20408;-70
2022/05/04 10:43:12;;;;;;;10.90;9.90;;;20.10;99.90;;;;;;5048586;28;20898;-70
2022/05/04 10:45:40;;;;;;;10.20;9.30;;;19.90;99.90;;;;;;5054290;28;20429;-70
2022/05/04 10:48:18;;;;;;;10.27;9.27;;;19.30;99.90;;;;;;5054445;28;20457;-69
2022/05/04 10:50:47;;;;;;;9.63;8.00;;;19.40;99.90;;;;;;5054725;28;20385;-70
2022/05/04 10:53:41;;;;;;;9.00;8.30;;;20.10;99.90;;;;;;5054226;28;20401;-70
2022/05/04 10:56:10;;;;;;;10.47;9.60;;;21.60;99.90;;;;;;5052003;28;20921;-70
2022/05/04 10:58:44;;;;;;;9.83;8.17;;;22.70;99.90;;;;;;5066421;28;20488;-71
2022/05/04 11:01:14;;;;;;;10.50;7.70;;;23.80;99.90;;;;;;5074325;28;20384;-70
2022/05/04 11:04:08;;;;;;;7.93;6.70;;;24.80;98.20;;;;;;5074787;28;20424;-70
2022/05/04 11:06:36;;;;;;;7.10;6.40;;;25.10;96.00;;;;;;5075116;28;20431;-70
2022/05/04 11:09:10;;;;;;;9.00;8.20;;;25.10;94.10;;;;;;5074950;28;20504;-70
2022/05/04 11:11:37;;;;;;;7.10;6.50;;;24.50;95.20;;;;;;5074160;28;20789;-70
2022/05/04 11:14:04;;;;;;;6.30;5.80;;;24.80;94.60;;;;;;5073496;28;20407;-70
2022/05/04 11:16:31;;;;;;;6.73;5.83;;;25.30;93.90;;;;;;5073701;28;20404;-70
2022/05/04 11:19:01;;;;;;;7.80;5.70;;;25.70;92.80;;;;;;5073658;28;20423;-70
2022/05/04 11:21:28;;;;;;;6.00;5.50;;;26.00;95.20;;;;;;5073977;28;20400;-70
2022/05/04 11:23:57;;;;;;;5.47;4.97;;;26.10;90.80;;;;;;5073952;28;20404;-70
2022/05/04 11:26:25;;;;;;;5.57;4.60;;;26.20;91.10;;;;;;5074908;28;20407;-70
2022/05/04 11:28:52;;;;;;;5.50;5.00;;;25.30;92.70;;;;;;5072040;28;20472;-70
2022/05/04 11:31:19;;;;;;;6.70;5.73;;;25.60;93.30;;;;;;5073749;28;20444;-72
2022/05/04 11:33:47;;;;;;;7.63;6.93;;;25.80;93.80;;;;;;5074054;28;20889;-71
2022/05/04 11:36:13;;;;;;;5.80;5.30;;;25.60;91.00;;;;;;5073476;28;20889;-70
2022/05/04 11:38:42;;;;;;;6.20;5.20;;;25.60;91.70;;;;;;5073595;28;20428;-69
2022/05/04 11:41:09;;;;;;;5.73;5.17;;;25.20;90.40;;;;;;5074052;28;20439;-70
2022/05/04 11:43:36;;;;;;;6.63;4.83;;;24.70;91.30;;;;;;5072991;28;20765;-71
2022/05/04 11:46:07;;;;;;;6.10;5.30;;;24.70;90.50;;;;;;5073537;28;20405;-70
2022/05/04 11:48:56;;;;;;;5.97;5.47;;;24.80;91.80;;;;;;5073697;28;20474;-72
2022/05/04 11:51:21;;;;;;;6.60;5.90;;;25.10;91.10;;;;;;5073628;28;20444;-69
2022/05/04 11:53:47;;;;;;;7.70;5.90;;;25.10;90.70;;;;;;5074728;28;20869;-70
2022/05/04 11:56:13;;;;;;;5.60;5.10;;;25.10;90.70;;;;;;5071689;28;20166;-72
2022/05/04 11:58:39;;;;;;;6.37;5.77;;;25.20;90.60;;;;;;5073515;28;20564;-71
2022/05/04 12:01:07;;;;;;;5.03;4.63;;;25.60;91.90;;;;;;5073838;28;20169;-73
2022/05/04 12:03:35;;;;;;;4.67;4.23;;;26.40;90.10;;;;;;5073626;28;20170;-72
2022/05/04 12:06:03;;;;;;;5.80;5.30;;;26.20;86.20;;;;;;5073409;28;20404;-74
2022/05/04 12:08:30;;;;;;;6.10;5.60;;;26.20;86.80;;;;;;5073436;28;20454;-70
2022/05/04 12:10:55;;;;;;;8.10;5.37;;;26.80;85.80;;;;;;5072780;28;20407;-69
2022/05/04 12:13:23;;;;;;;6.00;5.40;;;26.60;86.10;;;;;;5072834;28;20960;-69
2022/05/04 12:15:52;;;;;;;5.67;5.17;;;26.30;85.50;;;;;;5073357;28;20253;-71
2022/05/04 12:18:17;;;;;;;5.83;5.33;;;26.10;84.50;;;;;;5072983;28;20408;-68
2022/05/04 12:20:44;;;;;;;5.60;5.20;;;25.60;87.50;;;;;;5074195;28;20411;-66
2022/05/04 12:23:11;;;;;;;5.80;5.30;;;24.90;87.20;;;;;;5073041;28;20638;-69
2022/05/04 12:25:39;;;;;;;6.30;5.43;;;25.50;87.50;;;;;;5072989;28;20438;-68
2022/05/04 12:28:05;;;;;;;5.20;4.80;;;25.50;87.20;;;;;;5072507;28;20471;-69
2022/05/04 12:33:15;;;;;;;4.60;4.20;;;28.40;77.50;;;;;;5073564;28;20403;-69
2022/05/04 12:35:43;;;;;;;5.07;4.57;;;26.90;79.40;;;;;;5073191;28;20521;-68
2022/05/04 12:38:16;;;;;;;5.60;5.10;;;27.10;78.50;;;;;;5077123;28;20189;-68
2022/05/04 12:40:42;;;;;;;4.53;4.20;;;26.20;78.90;;;;;;5078259;28;20958;-69
2022/05/04 12:43:08;;;;;;;4.23;3.93;;;25.80;81.30;;;;;;5077368;28;20780;-68
2022/05/04 12:45:35;;;;;;;6.37;4.00;;;26.70;78.40;;;;;;5077074;28;20403;-69
2022/05/04 12:48:04;;;;;;;3.43;3.20;;;26.10;77.60;;;;;;5076591;28;20545;-69
2022/05/04 12:50:30;;;;;;;4.63;4.23;;;25.10;79.80;;;;;;5076990;28;20465;-68
2022/05/04 12:52:56;;;;;;;4.80;4.40;;;25.50;84.20;;;;;;5076276;28;20455;-68
2022/05/04 12:56:45;;;;;;;4.60;4.20;;;24.90;82.70;;;;;;5076392;28;20185;-69
2022/05/04 12:58:13;;;;;;;9.23;4.40;;;24.30;83.60;;;;;;5076232;28;20439;-71
2022/05/04 13:00:39;;;;;;;4.60;4.30;;;23.70;85.60;;;;;;5077341;28;20498;-70
2022/05/04 13:03:11;;;;;;;5.33;4.10;;;24.60;89.40;;;;;;5082326;28;20409;-69
2022/05/04 13:05:37;;;;;;;6.60;3.60;;;25.60;83.00;;;;;;5080807;28;20798;-70
2022/05/04 13:08:03;;;;;;;5.20;4.13;;;25.30;86.00;;;;;;5079939;28;20427;-69
2022/05/04 13:10:31;;;;;;;4.97;4.47;;;25.50;86.00;;;;;;5079902;28;20453;-69
2022/05/04 13:12:57;;;;;;;5.40;4.90;;;25.20;87.30;;;;;;5080904;28;20447;-70
2022/05/04 13:15:23;;;;;;;4.40;4.00;;;24.80;88.50;;;;;;5080151;28;20772;-70
2022/05/04 13:17:48;;;;;;;4.70;4.30;;;24.90;88.80;;;;;;5068167;28;20441;-70